Terminal Aerodrome Forecast
Issued by NWS Cleveland, OH

Home | Current Version | Previous Version | Graphics & Text | Print | Product List | Glossary Off
Versions: 1 2 3 4 5 6 7 8 9 10 11 12 13 14

000
FTUS41 KCLE 292327
TAFCAK
TAF
KCAK 292327Z 3000/3024 20010KT P6SM SCT050 BKN120
      TEMPO 3002/3003 3SM -TSRA BR BKN050CB
     FM300700 23005KT 6SM BR SCT120
      TEMPO 3009/3011 4SM BR
     FM301400 28008KT P6SM BKN030
     FM301600 28010KT P6SM BKN040=

USA.gov is the U.S. government's official web portal to all federal, state and local government web resources and services.